Time;durP1;ratioP1;P1;durP2;ratioP2;P2;SDS_P1;SDS_P2;PMS_P1;PMS_P2;Temp;Humidity;BMP_temperature;BMP_pressure;BME280_temperature;BME280_humidity;BME280_pressure;Samples;Min_cycle;Max_cycle;Signal;HPM_P1;HPM_P2
2023/09/21 00:01:03;;;;;;;6.22;5.35;;;;;;;;;;5018564;28;20503;-93
2023/09/21 00:03:30;;;;;;;7.78;4.65;;;;;;;;;;5011435;28;20499;-92
2023/09/21 00:05:57;;;;;;;6.18;5.13;;;;;;;;;;5030218;28;20033;-94
2023/09/21 00:08:24;;;;;;;6.55;5.65;;;;;;;;;;4998764;28;20104;-92
2023/09/21 00:10:50;;;;;;;5.95;5.35;;;;;;;;;;4998443;28;20089;-92
2023/09/21 00:13:17;;;;;;;8.95;5.65;;;;;;;;;;5003715;28;20044;-91
2023/09/21 00:15:44;;;;;;;6.72;5.28;;;;;;;;;;5010599;28;20118;-92
2023/09/21 00:18:10;;;;;;;7.55;5.30;;;;;;;;;;5049891;28;20039;-93
2023/09/21 00:23:07;;;;;;;7.20;5.80;;;;;;;;;;5032019;28;20036;-92
2023/09/21 00:25:34;;;;;;;7.20;5.53;;;;;;;;;;5015698;28;20128;-86
2023/09/21 00:28:07;;;;;;;6.93;5.50;;;;;;;;;;5015670;28;20076;-91
2023/09/21 00:30:37;;;;;;;8.05;5.60;;;;;;;;;;5001407;28;20103;-94
2023/09/21 00:33:08;;;;;;;6.03;5.35;;;;;;;;;;5054348;28;20114;-96
2023/09/21 00:35:39;;;;;;;8.70;5.93;;;;;;;;;;4999621;28;20041;-94
2023/09/21 00:38:07;;;;;;;7.28;5.93;;;;;;;;;;5004980;28;20021;-87
2023/09/21 00:40:38;;;;;;;8.30;5.78;;;;;;;;;;5001033;28;20086;-92
2023/09/21 00:43:06;;;;;;;6.30;5.70;;;;;;;;;;5021583;28;20502;-94
2023/09/21 00:45:36;;;;;;;6.43;5.57;;;;;;;;;;5003002;28;20057;-92
2023/09/21 00:48:03;;;;;;;7.57;5.68;;;;;;;;;;5018811;28;20043;-94
2023/09/21 00:50:30;;;;;;;6.63;5.93;;;;;;;;;;5016053;28;20041;-93
2023/09/21 00:52:57;;;;;;;6.53;5.90;;;;;;;;;;5004889;28;20071;-93
2023/09/21 00:55:30;;;;;;;9.15;5.50;;;;;;;;;;5022000;28;20953;-92
2023/09/21 00:57:59;;;;;;;10.43;6.13;;;;;;;;;;5015596;28;20040;-93
2023/09/21 01:00:26;;;;;;;8.00;5.68;;;;;;;;;;5015825;28;20562;-95
2023/09/21 01:02:53;;;;;;;7.35;5.65;;;;;;;;;;5016207;28;20025;-92
2023/09/21 01:05:21;;;;;;;8.73;6.20;;;;;;;;;;5000011;28;20221;-93
2023/09/21 01:07:50;;;;;;;6.30;5.47;;;;;;;;;;5020665;28;20467;-92
2023/09/21 01:10:19;;;;;;;10.98;6.40;;;;;;;;;;5014457;28;20163;-92
2023/09/21 01:12:49;;;;;;;9.40;6.25;;;;;;;;;;5014355;28;20123;-90
2023/09/21 01:15:16;;;;;;;8.18;5.80;;;;;;;;;;5032425;28;20480;-92
2023/09/21 01:17:43;;;;;;;6.72;5.95;;;;;;;;;;5018893;28;20033;-90
2023/09/21 01:22:54;;;;;;;6.43;5.35;;;;;;;;;;5039908;28;20043;-91
2023/09/21 01:25:21;;;;;;;8.35;5.95;;;;;;;;;;5029542;28;20109;-91
2023/09/21 01:27:51;;;;;;;7.40;5.90;;;;;;;;;;5018915;28;20033;-92
2023/09/21 01:30:17;;;;;;;6.25;5.55;;;;;;;;;;5037441;28;20033;-91
2023/09/21 01:32:43;;;;;;;8.40;6.18;;;;;;;;;;5072198;28;20029;-91
2023/09/21 01:35:10;;;;;;;6.90;5.68;;;;;;;;;;5040027;28;20088;-89
2023/09/21 01:37:36;;;;;;;9.10;6.10;;;;;;;;;;5027741;28;20037;-89
2023/09/21 01:40:15;;;;;;;6.68;6.00;;;;;;;;;;5031331;28;20078;-91
2023/09/21 01:42:43;;;;;;;7.75;6.07;;;;;;;;;;5021710;28;20088;-93
2023/09/21 01:45:10;;;;;;;7.60;5.80;;;;;;;;;;5019223;28;20033;-87
2023/09/21 01:47:36;;;;;;;9.13;5.90;;;;;;;;;;5000882;28;20037;-90
2023/09/21 01:50:06;;;;;;;7.90;6.28;;;;;;;;;;5014670;28;20059;-90
2023/09/21 01:52:34;;;;;;;7.15;6.00;;;;;;;;;;5016257;28;21398;-91
2023/09/21 01:55:05;;;;;;;6.53;5.78;;;;;;;;;;5013101;28;20098;-91
2023/09/21 01:57:33;;;;;;;7.07;6.35;;;;;;;;;;5014109;28;20065;-91
2023/09/21 02:00:08;;;;;;;7.75;6.07;;;;;;;;;;5019816;28;20040;-89
2023/09/21 02:02:39;;;;;;;7.25;6.05;;;;;;;;;;5052082;28;20584;-93
2023/09/21 02:05:10;;;;;;;7.05;6.13;;;;;;;;;;5018448;28;20044;-92
2023/09/21 02:07:37;;;;;;;7.38;6.00;;;;;;;;;;5036372;28;20048;-94
2023/09/21 02:10:03;;;;;;;7.45;6.20;;;;;;;;;;5022905;28;20040;-95
2023/09/21 02:12:35;;;;;;;9.07;6.50;;;;;;;;;;5017045;28;20048;-94
2023/09/21 02:15:02;;;;;;;7.72;6.68;;;;;;;;;;5001231;28;20055;-91
2023/09/21 02:17:29;;;;;;;8.00;6.00;;;;;;;;;;5019278;28;20078;-95
2023/09/21 02:19:56;;;;;;;6.65;5.90;;;;;;;;;;5002101;28;20045;-95
2023/09/21 02:22:22;;;;;;;10.20;6.05;;;;;;;;;;5000593;28;20033;-93
2023/09/21 02:24:49;;;;;;;11.00;6.13;;;;;;;;;;5000008;28;20522;-93
2023/09/21 02:27:16;;;;;;;7.45;6.28;;;;;;;;;;4999838;28;20033;-92
2023/09/21 02:29:42;;;;;;;7.97;6.30;;;;;;;;;;5030892;28;20446;-87
2023/09/21 02:32:10;;;;;;;7.68;6.05;;;;;;;;;;5005417;28;20518;-91
2023/09/21 02:34:37;;;;;;;7.30;6.22;;;;;;;;;;5004233;28;20025;-89
2023/09/21 02:37:03;;;;;;;8.68;6.53;;;;;;;;;;4999740;28;20083;-87
2023/09/21 02:39:30;;;;;;;10.13;6.30;;;;;;;;;;5013938;28;20086;-89
2023/09/21 02:41:56;;;;;;;7.93;6.35;;;;;;;;;;5049820;28;20171;-88
2023/09/21 02:44:23;;;;;;;7.97;5.93;;;;;;;;;;5002812;28;20037;-90
2023/09/21 02:46:50;;;;;;;10.05;7.03;;;;;;;;;;5016914;28;20033;-90
2023/09/21 02:49:16;;;;;;;7.45;6.45;;;;;;;;;;5001999;28;20511;-85
2023/09/21 02:51:44;;;;;;;9.70;6.55;;;;;;;;;;5000942;28;20040;-88
2023/09/21 02:54:11;;;;;;;8.35;6.25;;;;;;;;;;5016248;28;20126;-89
2023/09/21 02:56:37;;;;;;;8.65;6.18;;;;;;;;;;5011622;28;20029;-90
2023/09/21 02:59:05;;;;;;;8.40;6.32;;;;;;;;;;5006356;28;20045;-90
2023/09/21 03:01:32;;;;;;;7.40;6.25;;;;;;;;;;5015435;28;20174;-92
2023/09/21 03:03:59;;;;;;;8.65;6.40;;;;;;;;;;5048770;28;20033;-89
2023/09/21 03:06:25;;;;;;;10.23;6.50;;;;;;;;;;4995683;28;20044;-89
2023/09/21 03:08:51;;;;;;;7.65;6.65;;;;;;;;;;5017824;28;20024;-91
2023/09/21 03:11:19;;;;;;;7.68;5.85;;;;;;;;;;5012720;28;20033;-90
2023/09/21 03:13:45;;;;;;;7.40;6.25;;;;;;;;;;5015882;28;20049;-90
2023/09/21 03:16:16;;;;;;;8.82;6.97;;;;;;;;;;5021103;28;20041;-92
2023/09/21 03:18:46;;;;;;;7.65;6.57;;;;;;;;;;5031784;28;20059;-91
2023/09/21 03:21:15;;;;;;;9.15;7.18;;;;;;;;;;4996656;28;20079;-89
2023/09/21 03:23:42;;;;;;;10.45;6.82;;;;;;;;;;5029865;28;20071;-90
2023/09/21 03:26:13;;;;;;;8.25;6.03;;;;;;;;;;5013465;28;20608;-91
2023/09/21 03:28:40;;;;;;;7.28;6.22;;;;;;;;;;5013885;28;20036;-89
2023/09/21 03:31:06;;;;;;;8.15;6.60;;;;;;;;;;4999917;28;20083;-95
2023/09/21 03:33:33;;;;;;;8.07;6.65;;;;;;;;;;5004811;28;20088;-96
2023/09/21 03:35:59;;;;;;;8.57;7.03;;;;;;;;;;5000223;28;20528;-94
2023/09/21 03:38:27;;;;;;;8.30;6.70;;;;;;;;;;5029495;28;20045;-92
2023/09/21 03:40:54;;;;;;;8.85;6.55;;;;;;;;;;5018046;28;20097;-95
2023/09/21 03:43:23;;;;;;;8.60;6.50;;;;;;;;;;5016665;28;20120;-96
2023/09/21 03:45:50;;;;;;;8.45;6.55;;;;;;;;;;5021819;28;20029;-96
2023/09/21 03:48:18;;;;;;;8.52;6.90;;;;;;;;;;5018005;28;20033;-95
2023/09/21 03:50:52;;;;;;;10.13;6.30;;;;;;;;;;5217048;23;20033;31
2023/09/21 03:53:18;;;;;;;8.32;6.55;;;;;;;;;;5528084;23;20070;-85
2023/09/21 03:55:57;;;;;;;8.32;6.85;;;;;;;;;;5178877;22;20214;-90
2023/09/21 03:58:23;;;;;;;8.40;6.28;;;;;;;;;;4995770;28;20057;-92
2023/09/21 04:00:49;;;;;;;12.00;6.90;;;;;;;;;;5007142;28;20041;-90
2023/09/21 04:03:16;;;;;;;8.48;7.55;;;;;;;;;;5009118;28;20029;-82
2023/09/21 04:05:55;;;;;;;9.38;6.50;;;;;;;;;;5016798;28;20064;-90
2023/09/21 04:08:21;;;;;;;7.68;6.40;;;;;;;;;;5018240;28;20051;-91
2023/09/21 04:10:48;;;;;;;8.00;7.20;;;;;;;;;;5021958;28;20042;-90
2023/09/21 04:13:15;;;;;;;8.48;6.97;;;;;;;;;;5010956;28;20068;-90
2023/09/21 04:15:41;;;;;;;8.77;7.20;;;;;;;;;;5029551;28;20113;-87
2023/09/21 04:18:09;;;;;;;9.85;6.82;;;;;;;;;;5009940;28;20470;-83
2023/09/21 04:20:39;;;;;;;8.25;6.90;;;;;;;;;;4981914;28;20029;-86
2023/09/21 04:23:06;;;;;;;8.93;6.22;;;;;;;;;;5005199;28;20033;-86
2023/09/21 04:25:32;;;;;;;7.13;6.43;;;;;;;;;;4992765;28;20033;-88
2023/09/21 04:27:59;;;;;;;9.15;7.00;;;;;;;;;;5021452;28;20041;-87
2023/09/21 04:30:25;;;;;;;7.32;6.47;;;;;;;;;;5025528;28;20044;-86
2023/09/21 04:32:55;;;;;;;7.72;6.88;;;;;;;;;;4996147;28;20083;-87
2023/09/21 04:35:22;;;;;;;9.88;6.65;;;;;;;;;;5022344;28;20526;-82
2023/09/21 04:37:58;;;;;;;9.30;6.53;;;;;;;;;;5011564;28;20037;-81
2023/09/21 04:40:26;;;;;;;8.30;6.75;;;;;;;;;;4993050;28;20045;-81
2023/09/21 04:42:52;;;;;;;7.78;6.60;;;;;;;;;;5025621;28;20059;-82
2023/09/21 04:45:20;;;;;;;9.48;7.57;;;;;;;;;;5024934;28;20033;-83
2023/09/21 04:47:49;;;;;;;9.52;7.22;;;;;;;;;;5008892;28;20048;-80
2023/09/21 04:50:18;;;;;;;8.82;6.45;;;;;;;;;;5020728;28;20088;-79
2023/09/21 04:52:48;;;;;;;10.00;7.25;;;;;;;;;;5006907;28;20042;-79
2023/09/21 04:55:16;;;;;;;8.48;7.47;;;;;;;;;;5008869;28;20042;-79
2023/09/21 04:57:44;;;;;;;11.85;7.40;;;;;;;;;;5020285;28;20049;-82
2023/09/21 05:00:13;;;;;;;12.45;8.15;;;;;;;;;;4991920;28;20037;-82
2023/09/21 05:02:40;;;;;;;10.40;8.05;;;;;;;;;;5003522;28;20543;-82
2023/09/21 05:05:07;;;;;;;9.57;7.05;;;;;;;;;;5024586;28;20036;-83
2023/09/21 05:07:36;;;;;;;10.00;6.63;;;;;;;;;;5002832;28;20879;-82
2023/09/21 05:10:06;;;;;;;8.70;7.50;;;;;;;;;;5020149;28;20095;-83
2023/09/21 05:12:34;;;;;;;10.05;7.65;;;;;;;;;;5005458;28;20037;-82
2023/09/21 05:15:00;;;;;;;9.63;7.38;;;;;;;;;;5008706;28;20029;-83
2023/09/21 05:17:27;;;;;;;8.73;7.57;;;;;;;;;;5016293;28;20037;-83
2023/09/21 05:19:53;;;;;;;11.20;7.43;;;;;;;;;;5005807;28;20128;-82
2023/09/21 05:22:20;;;;;;;12.50;7.93;;;;;;;;;;5003632;28;20033;-82
2023/09/21 05:24:46;;;;;;;9.73;7.82;;;;;;;;;;5000721;28;20140;-82
2023/09/21 05:27:13;;;;;;;11.48;7.55;;;;;;;;;;4987591;28;20037;-82
2023/09/21 05:29:40;;;;;;;10.48;7.65;;;;;;;;;;5005501;28;20060;-82
2023/09/21 05:32:06;;;;;;;8.85;7.55;;;;;;;;;;4971485;28;20037;-82
2023/09/21 05:34:33;;;;;;;13.90;7.38;;;;;;;;;;5019054;28;20026;-83
2023/09/21 05:36:59;;;;;;;10.27;7.22;;;;;;;;;;5019972;28;20592;-82
2023/09/21 05:39:25;;;;;;;12.05;7.85;;;;;;;;;;5022111;28;20029;-82
2023/09/21 05:41:52;;;;;;;9.57;7.10;;;;;;;;;;4975720;28;20535;-82
2023/09/21 05:44:21;;;;;;;16.83;10.65;;;;;;;;;;5003737;28;20486;-82
2023/09/21 05:46:49;;;;;;;24.27;17.92;;;;;;;;;;4999431;28;20040;-83
2023/09/21 05:49:24;;;;;;;21.83;16.02;;;;;;;;;;5020545;28;20030;-82
2023/09/21 05:51:56;;;;;;;23.88;14.93;;;;;;;;;;4993032;28;20029;-82
2023/09/21 05:54:26;;;;;;;17.38;12.02;;;;;;;;;;5016902;28;20025;-83
2023/09/21 05:56:55;;;;;;;16.52;11.90;;;;;;;;;;4975244;28;20049;-83
2023/09/21 05:59:24;;;;;;;15.52;10.88;;;;;;;;;;5020760;28;20036;-86
2023/09/21 06:01:51;;;;;;;14.32;10.63;;;;;;;;;;5006868;28;20030;-83
2023/09/21 06:04:18;;;;;;;14.50;10.10;;;;;;;;;;5004179;28;20041;-79
2023/09/21 06:06:45;;;;;;;12.85;9.40;;;;;;;;;;5021058;28;20061;-79
2023/09/21 06:09:18;;;;;;;12.10;8.77;;;;;;;;;;4987508;28;20033;-82
2023/09/21 06:11:44;;;;;;;9.75;8.30;;;;;;;;;;5019901;28;20046;-79
2023/09/21 06:14:11;;;;;;;10.80;8.63;;;;;;;;;;5021882;28;20033;-79
2023/09/21 06:16:37;;;;;;;10.43;8.23;;;;;;;;;;4990576;28;20037;-79
2023/09/21 06:19:03;;;;;;;12.85;8.52;;;;;;;;;;5018741;28;20086;-81
2023/09/21 06:21:30;;;;;;;11.27;8.63;;;;;;;;;;5009588;28;20087;-82
2023/09/21 06:23:57;;;;;;;16.52;9.20;;;;;;;;;;5002537;28;20030;-81
2023/09/21 06:26:24;;;;;;;12.77;8.63;;;;;;;;;;5019672;28;20085;-80
2023/09/21 06:28:50;;;;;;;12.70;8.90;;;;;;;;;;5021068;28;20497;-81
2023/09/21 06:31:20;;;;;;;10.30;8.93;;;;;;;;;;5020426;28;20060;-81
2023/09/21 06:33:46;;;;;;;14.27;9.07;;;;;;;;;;4987242;28;20045;-80
2023/09/21 06:36:20;;;;;;;11.35;9.27;;;;;;;;;;5005057;28;20092;-80
2023/09/21 06:38:47;;;;;;;13.23;8.95;;;;;;;;;;5004134;28;20041;-80
2023/09/21 06:41:13;;;;;;;12.48;9.57;;;;;;;;;;4975719;28;20034;-80
2023/09/21 06:43:42;;;;;;;13.57;9.18;;;;;;;;;;5003908;28;20026;-80
2023/09/21 06:46:09;;;;;;;11.20;9.30;;;;;;;;;;5008132;28;20068;-81
2023/09/21 06:48:35;;;;;;;12.07;9.65;;;;;;;;;;5007087;28;20033;-80
2023/09/21 06:51:03;;;;;;;15.13;9.80;;;;;;;;;;4994311;28;20033;-80
2023/09/21 06:53:29;;;;;;;12.35;9.63;;;;;;;;;;5023602;28;20043;-80
2023/09/21 06:55:56;;;;;;;16.08;10.55;;;;;;;;;;5009191;28;20042;-79
2023/09/21 06:58:22;;;;;;;11.63;9.40;;;;;;;;;;5008293;28;20057;-79
2023/09/21 07:00:49;;;;;;;12.65;9.38;;;;;;;;;;5012051;28;20030;-81
2023/09/21 07:03:17;;;;;;;15.55;10.02;;;;;;;;;;5029831;28;20203;-83
2023/09/21 07:05:48;;;;;;;13.52;9.55;;;;;;;;;;5036403;28;20025;-81
2023/09/21 07:08:15;;;;;;;14.25;9.50;;;;;;;;;;5014528;28;20030;-81
2023/09/21 07:10:43;;;;;;;16.48;9.63;;;;;;;;;;5028521;28;20026;-80
2023/09/21 07:13:09;;;;;;;11.40;9.05;;;;;;;;;;5012428;28;20037;-82
2023/09/21 07:15:37;;;;;;;11.52;8.73;;;;;;;;;;5017251;28;20520;-87
2023/09/21 07:18:05;;;;;;;11.85;9.02;;;;;;;;;;5030682;28;20030;-84
2023/09/21 07:20:32;;;;;;;14.95;10.38;;;;;;;;;;4995782;28;20048;-83
2023/09/21 07:22:58;;;;;;;13.65;9.10;;;;;;;;;;5011296;28;20123;-81
2023/09/21 07:25:25;;;;;;;10.07;8.32;;;;;;;;;;4978043;28;20133;-81
2023/09/21 07:27:54;;;;;;;14.43;8.30;;;;;;;;;;5006899;28;20044;-81
2023/09/21 07:30:26;;;;;;;11.85;8.77;;;;;;;;;;5010890;28;20033;-80
2023/09/21 07:32:55;;;;;;;10.90;8.48;;;;;;;;;;5006781;28;20567;-82
2023/09/21 07:35:21;;;;;;;12.10;8.38;;;;;;;;;;5010062;28;20641;-80
2023/09/21 07:37:51;;;;;;;13.75;8.88;;;;;;;;;;5007586;28;20029;-91
2023/09/21 07:40:18;;;;;;;10.30;8.50;;;;;;;;;;5011591;28;20045;-87
2023/09/21 07:42:45;;;;;;;11.93;8.25;;;;;;;;;;5021999;28;20091;-85
2023/09/21 07:45:11;;;;;;;12.73;8.32;;;;;;;;;;5025890;28;20029;-86
2023/09/21 07:47:38;;;;;;;10.77;8.27;;;;;;;;;;5023445;28;20207;-87
2023/09/21 07:50:05;;;;;;;13.38;8.85;;;;;;;;;;5023009;28;20427;-88
2023/09/21 07:52:33;;;;;;;10.40;8.05;;;;;;;;;;5007228;28;20034;-86
2023/09/21 07:55:02;;;;;;;10.23;8.30;;;;;;;;;;5010454;28;20447;-88
2023/09/21 07:57:32;;;;;;;10.63;8.18;;;;;;;;;;5020243;28;20516;-87
2023/09/21 07:59:58;;;;;;;13.60;9.13;;;;;;;;;;5005266;28;20462;-88
2023/09/21 08:02:25;;;;;;;12.02;8.77;;;;;;;;;;5025346;28;20041;-87
2023/09/21 08:04:53;;;;;;;12.93;9.30;;;;;;;;;;5011244;28;20048;-87
2023/09/21 08:07:23;;;;;;;14.52;8.90;;;;;;;;;;5006135;28;20048;-87
2023/09/21 08:09:50;;;;;;;10.65;8.52;;;;;;;;;;5024685;28;20491;-87
2023/09/21 08:12:16;;;;;;;15.45;9.63;;;;;;;;;;4993875;28;20057;-85
2023/09/21 08:14:42;;;;;;;11.07;8.45;;;;;;;;;;5021229;28;20038;-86
2023/09/21 08:17:10;;;;;;;13.15;9.00;;;;;;;;;;5023433;28;20423;-83
2023/09/21 08:19:38;;;;;;;11.60;8.82;;;;;;;;;;5005575;28;20042;-84
2023/09/21 08:22:05;;;;;;;13.85;10.82;;;;;;;;;;4990585;28;20479;-86
2023/09/21 08:24:31;;;;;;;14.65;10.50;;;;;;;;;;5023588;28;20033;-84
2023/09/21 08:26:58;;;;;;;12.82;10.00;;;;;;;;;;5006277;28;20038;-82
2023/09/21 08:29:24;;;;;;;12.02;9.75;;;;;;;;;;5016999;28;20032;-84
2023/09/21 08:31:51;;;;;;;14.57;10.35;;;;;;;;;;5006282;28;20124;-85
2023/09/21 08:34:19;;;;;;;12.70;9.43;;;;;;;;;;5005571;28;20088;-87
2023/09/21 08:36:45;;;;;;;17.63;10.60;;;;;;;;;;5021897;28;20042;-88
2023/09/21 08:39:11;;;;;;;15.68;10.02;;;;;;;;;;5006442;28;20043;-86
2023/09/21 08:41:42;;;;;;;10.60;9.15;;;;;;;;;;5020312;28;20034;-81
2023/09/21 08:44:08;;;;;;;15.45;9.00;;;;;;;;;;5002723;28;20497;-79
2023/09/21 08:46:36;;;;;;;14.82;9.60;;;;;;;;;;5022005;28;20063;-79
2023/09/21 08:49:03;;;;;;;13.00;9.32;;;;;;;;;;5020818;28;20030;-79
2023/09/21 08:51:32;;;;;;;11.30;9.45;;;;;;;;;;5009269;28;20048;-79
2023/09/21 08:53:59;;;;;;;11.93;8.63;;;;;;;;;;5020872;28;20124;-78
2023/09/21 08:56:26;;;;;;;13.88;8.75;;;;;;;;;;5021103;28;20042;-78
2023/09/21 08:58:54;;;;;;;12.95;9.00;;;;;;;;;;5003984;28;20033;-79
2023/09/21 09:01:20;;;;;;;12.98;8.25;;;;;;;;;;5020646;28;20389;-79
2023/09/21 09:03:47;;;;;;;11.20;8.07;;;;;;;;;;5003170;28;20083;-77
2023/09/21 09:06:14;;;;;;;12.18;9.02;;;;;;;;;;5005014;28;20029;-77
2023/09/21 09:08:41;;;;;;;10.93;8.82;;;;;;;;;;4990776;28;20416;-78
2023/09/21 09:11:07;;;;;;;11.95;8.48;;;;;;;;;;5020994;28;20033;-76
2023/09/21 09:13:33;;;;;;;11.38;8.52;;;;;;;;;;5021200;28;20133;-78
2023/09/21 09:16:00;;;;;;;10.90;8.02;;;;;;;;;;5002864;28;20512;-78
2023/09/21 09:18:27;;;;;;;11.65;7.88;;;;;;;;;;5020775;28;20045;-78
2023/09/21 09:20:54;;;;;;;12.32;8.40;;;;;;;;;;5020958;28;20026;-77
2023/09/21 09:23:21;;;;;;;11.27;8.88;;;22.90;74.70;;;;;;5020718;28;20033;-78
2023/09/21 09:25:49;;;;;;;9.98;8.25;;;23.00;75.30;;;;;;5008329;28;20428;-79
2023/09/21 09:28:18;;;;;;;12.98;9.07;;;23.10;74.20;;;;;;5010339;28;20033;-78
2023/09/21 09:30:45;;;;;;;10.32;8.57;;;23.20;74.00;;;;;;5012458;28;20042;-80
2023/09/21 09:33:15;;;;;;;13.80;8.93;;;23.30;73.70;;;;;;5020914;28;20088;-79
2023/09/21 09:35:41;;;;;;;11.82;8.60;;;23.30;73.40;;;;;;5009322;28;20528;-79
2023/09/21 09:38:11;;;;;;;11.43;8.73;;;23.40;73.40;;;;;;5018999;28;20037;-80
2023/09/21 09:40:38;;;;;;;10.18;8.50;;;23.40;73.30;;;;;;5003923;28;20038;-81
2023/09/21 09:43:05;;;;;;;9.90;8.20;;;23.40;73.10;;;;;;5019871;28;20123;-80
2023/09/21 09:45:31;;;;;;;12.52;8.80;;;23.50;73.00;;;;;;5023605;28;20045;-79
2023/09/21 09:48:03;;;;;;;13.68;9.10;;;23.50;73.00;;;;;;5008860;28;20697;-79
2023/09/21 09:50:33;;;;;;;10.15;8.45;;;23.50;72.90;;;;;;5003111;28;20516;-80
2023/09/21 09:53:05;;;;;;;11.38;8.52;;;23.50;72.70;;;;;;5008598;28;20065;-81
2023/09/21 09:55:33;;;;;;;12.48;8.68;;;23.60;72.70;;;;;;4987223;28;20037;-81
2023/09/21 09:58:03;;;;;;;11.70;8.90;;;23.60;73.30;;;;;;5020343;28;20065;-81
2023/09/21 10:00:30;;;;;;;11.43;8.73;;;23.60;72.50;;;;;;5023145;28;20033;-80
2023/09/21 10:02:58;;;;;;;10.68;8.88;;;23.60;72.50;;;;;;4991052;28;20057;-80
2023/09/21 10:05:26;;;;;;;10.82;8.75;;;23.60;72.40;;;;;;5006456;28;20041;-79
2023/09/21 10:07:55;;;;;;;10.63;8.48;;;23.70;72.40;;;;;;5003886;28;20025;-79
2023/09/21 10:10:22;;;;;;;10.73;8.35;;;23.70;72.20;;;;;;5007933;28;20131;-78
2023/09/21 10:12:51;;;;;;;11.52;9.13;;;23.70;72.20;;;;;;5002237;28;20029;-81
2023/09/21 10:15:23;;;;;;;11.35;8.90;;;23.70;72.10;;;;;;4991826;28;20030;-80
2023/09/21 10:17:53;;;;;;;10.48;8.63;;;23.70;72.10;;;;;;5006959;28;20117;-79
2023/09/21 10:20:29;;;;;;;14.95;8.55;;;23.70;72.10;;;;;;5008292;28;20068;-79
2023/09/21 10:22:57;;;;;;;11.52;8.75;;;23.70;72.10;;;;;;5025007;28;20106;-79
2023/09/21 10:25:48;;;;;;;13.43;9.10;;;23.70;72.00;;;;;;5012056;28;20087;-79
2023/09/21 10:28:29;;;;;;;12.57;9.15;;;23.70;72.00;;;;;;5001682;28;20037;-80
2023/09/21 10:31:22;;;;;;;15.25;8.90;;;23.70;71.80;;;;;;5023864;28;20116;-80
2023/09/21 10:33:51;;;;;;;12.80;9.10;;;23.70;71.70;;;;;;5006033;28;20041;-80
2023/09/21 10:36:28;;;;;;;12.38;8.35;;;23.70;71.60;;;;;;5012805;28;20144;-78
2023/09/21 10:39:09;;;;;;;10.65;8.45;;;23.70;71.70;;;;;;5010593;28;20135;-81
2023/09/21 10:41:41;;;;;;;15.20;8.80;;;23.70;71.80;;;;;;4989874;28;20034;-80
2023/09/21 10:44:08;;;;;;;10.43;8.45;;;23.80;71.80;;;;;;5023280;28;20436;-80
2023/09/21 10:46:35;;;;;;;9.43;8.15;;;23.80;71.80;;;;;;4994768;28;20053;-80
2023/09/21 10:49:14;;;;;;;11.07;8.18;;;23.80;71.70;;;;;;5027277;28;20125;-79
2023/09/21 10:51:40;;;;;;;16.65;11.60;;;23.80;71.70;;;;;;5022117;28;20494;-78
2023/09/21 10:54:07;;;;;;;14.70;11.63;;;23.90;71.60;;;;;;5011193;28;20025;-79
2023/09/21 10:56:34;;;;;;;13.18;9.90;;;23.90;71.50;;;;;;5023930;28;20057;-78
2023/09/21 10:59:00;;;;;;;11.38;9.13;;;23.90;71.40;;;;;;5023026;28;20045;-79
2023/09/21 11:01:27;;;;;;;10.65;8.35;;;23.90;71.40;;;;;;5025538;28;20408;-79
2023/09/21 11:03:53;;;;;;;12.25;8.80;;;23.90;71.40;;;;;;5023781;28;20133;-79
2023/09/21 11:06:21;;;;;;;11.10;8.02;;;24.00;71.30;;;;;;5025777;28;20041;-80
2023/09/21 11:08:47;;;;;;;10.07;8.23;;;23.90;71.30;;;;;;5009113;28;20037;-79
2023/09/21 11:11:15;;;;;;;11.60;8.52;;;24.00;71.30;;;;;;5024680;28;20042;-79
2023/09/21 11:13:41;;;;;;;9.27;7.93;;;24.00;71.20;;;;;;4993239;28;20041;-78
2023/09/21 11:16:14;;;;;;;9.93;8.65;;;24.00;71.20;;;;;;5023984;28;20044;-78
2023/09/21 11:18:40;;;;;;;9.52;8.55;;;24.00;71.20;;;;;;5009129;28;20574;-80
2023/09/21 11:21:09;;;;;;;10.63;8.32;;;24.10;71.10;;;;;;5023883;28;20469;-78
2023/09/21 11:23:37;;;;;;;9.00;7.93;;;24.10;71.00;;;;;;5023511;28;20183;-79
2023/09/21 11:26:05;;;;;;;11.27;7.60;;;24.10;70.90;;;;;;5023188;28;20042;-79
2023/09/21 11:28:36;;;;;;;14.05;8.68;;;24.10;71.20;;;;;;5006523;28;20030;-78
2023/09/21 11:31:02;;;;;;;10.82;8.32;;;24.10;71.70;;;;;;5023795;28;20120;-79
2023/09/21 11:33:28;;;;;;;12.48;8.23;;;24.10;72.10;;;;;;5023432;28;20112;-79
2023/09/21 11:35:54;;;;;;;12.15;8.38;;;24.10;72.10;;;;;;5022724;28;20492;-79
2023/09/21 11:38:20;;;;;;;10.73;7.75;;;24.10;72.30;;;;;;5025836;28;20034;-80
2023/09/21 11:40:55;;;;;;;10.68;8.43;;;24.10;72.30;;;;;;5023507;28;20052;-79
2023/09/21 11:43:23;;;;;;;9.57;8.13;;;24.10;72.30;;;;;;5007069;28;20037;-79
2023/09/21 11:45:50;;;;;;;14.82;8.50;;;24.10;72.20;;;;;;5024435;28;20048;-78
2023/09/21 11:48:18;;;;;;;11.50;8.20;;;24.20;72.10;;;;;;4998618;28;20041;-79
2023/09/21 11:50:45;;;;;;;11.10;8.27;;;24.20;72.20;;;;;;5022491;28;20111;-79
2023/09/21 11:53:12;;;;;;;10.25;8.48;;;24.10;72.30;;;;;;5010523;28;20483;-78
2023/09/21 11:55:38;;;;;;;11.00;8.05;;;24.20;72.20;;;;;;5005316;28;20042;-78
2023/09/21 11:58:14;;;;;;;9.82;8.18;;;24.20;72.00;;;;;;5023665;28;20443;-79
2023/09/21 12:00:45;;;;;;;9.77;8.20;;;24.20;72.00;;;;;;5010566;28;20029;-79
2023/09/21 12:03:13;;;;;;;10.65;8.20;;;24.20;72.00;;;;;;5007601;28;20116;-78
2023/09/21 12:05:46;;;;;;;9.73;8.15;;;24.20;72.00;;;;;;5024360;28;20041;-78
2023/09/21 12:08:16;;;;;;;10.68;7.82;;;24.20;72.00;;;;;;5024480;28;20030;-79
2023/09/21 12:10:46;;;;;;;10.43;8.52;;;24.20;71.90;;;;;;5022635;28;20037;-79
2023/09/21 12:13:17;;;;;;;9.82;7.65;;;24.20;71.90;;;;;;5024638;28;20033;-78
2023/09/21 12:15:43;;;;;;;12.02;7.55;;;24.20;71.90;;;;;;5022387;28;20088;-79
2023/09/21 12:18:10;;;;;;;8.95;8.05;;;24.20;71.80;;;;;;5025556;28;20041;-78
2023/09/21 12:20:37;;;;;;;10.30;7.65;;;24.20;71.70;;;;;;5008085;28;20504;-78
2023/09/21 12:23:07;;;;;;;9.13;7.68;;;24.20;71.70;;;;;;5021697;28;20532;-78
2023/09/21 12:25:33;;;;;;;9.30;8.00;;;24.20;71.50;;;;;;5024831;28;20389;-79
2023/09/21 12:27:59;;;;;;;8.20;7.40;;;24.20;71.60;;;;;;5022031;28;20033;-77
2023/09/21 12:30:26;;;;;;;10.23;7.63;;;24.20;71.60;;;;;;5009143;28;20041;-79
2023/09/21 12:32:52;;;;;;;9.35;8.00;;;24.20;71.60;;;;;;5010135;28;20152;-79
2023/09/21 12:35:21;;;;;;;8.77;7.55;;;24.20;71.60;;;;;;5022004;28;20049;-77
2023/09/21 12:37:50;;;;;;;8.52;7.43;;;24.20;71.60;;;;;;5023016;28;20045;-78
2023/09/21 12:40:17;;;;;;;11.15;7.63;;;24.30;71.60;;;;;;5008047;28;20503;-77
2023/09/21 12:42:45;;;;;;;10.40;7.90;;;24.30;71.50;;;;;;5022844;28;20539;-79
2023/09/21 12:45:15;;;;;;;10.00;7.72;;;24.20;71.40;;;;;;5024139;28;20159;-79
2023/09/21 12:47:44;;;;;;;10.05;7.85;;;24.20;71.30;;;;;;5023170;28;20144;-78
2023/09/21 12:50:12;;;;;;;8.88;7.70;;;24.20;71.30;;;;;;5011039;28;20033;-79
2023/09/21 12:52:40;;;;;;;8.25;7.45;;;24.20;71.10;;;;;;5021139;28;20423;-78
2023/09/21 12:55:06;;;;;;;9.63;7.82;;;24.20;71.10;;;;;;4992242;28;20098;-78
2023/09/21 12:57:36;;;;;;;9.50;7.88;;;24.20;71.00;;;;;;5003816;28;20654;-79
2023/09/21 13:00:24;;;;;;;9.90;8.25;;;24.20;71.00;;;;;;5026251;28;20141;-79
2023/09/21 13:02:50;;;;;;;11.27;8.18;;;24.20;70.90;;;;;;5023241;28;20424;-79
2023/09/21 13:05:16;;;;;;;11.75;7.55;;;24.20;70.70;;;;;;5004155;28;20030;-79
2023/09/21 13:07:44;;;;;;;11.10;8.10;;;24.20;70.90;;;;;;5003328;28;20402;-79
2023/09/21 13:10:12;;;;;;;11.15;7.38;;;24.20;70.40;;;;;;5005141;28;20081;-79
2023/09/21 13:12:39;;;;;;;11.07;8.27;;;24.20;70.90;;;;;;5023962;28;20408;-79
2023/09/21 13:15:06;;;;;;;9.52;7.80;;;24.20;70.90;;;;;;5021165;28;20052;-80
2023/09/21 13:17:32;;;;;;;10.95;7.28;;;24.20;71.00;;;;;;5004813;28;20120;-78
2023/09/21 13:19:58;;;;;;;10.68;7.80;;;24.20;71.10;;;;;;5021003;28;20290;-80
2023/09/21 13:22:25;;;;;;;8.68;7.07;;;24.20;71.20;;;;;;4988840;28;20467;-78
2023/09/21 13:24:52;;;;;;;11.15;7.60;;;24.20;71.50;;;;;;5021677;28;20052;-78
2023/09/21 13:27:18;;;;;;;8.57;7.43;;;24.20;71.60;;;;;;5020977;28;20025;-77
2023/09/21 13:29:45;;;;;;;9.10;6.70;;;24.20;71.70;;;;;;5009481;28;20436;-77
2023/09/21 13:32:11;;;;;;;10.32;7.60;;;24.20;71.90;;;;;;5006384;28;20049;-78
2023/09/21 13:34:37;;;;;;;9.95;6.93;;;24.20;71.90;;;;;;5005142;28;20049;-76
2023/09/21 13:37:04;;;;;;;8.35;6.38;;;24.20;71.90;;;;;;4991221;28;20048;-77
2023/09/21 13:39:33;;;;;;;8.52;6.97;;;24.20;71.90;;;;;;5023820;28;20090;-78
2023/09/21 13:41:59;;;;;;;9.00;6.63;;;24.20;71.90;;;;;;5022343;28;20413;-77
2023/09/21 13:44:28;;;;;;;8.45;7.47;;;24.20;72.60;;;;;;4993416;28;20041;-78
2023/09/21 13:46:57;;;;;;;8.75;6.63;;;24.20;72.00;;;;;;5022334;28;20095;-80
2023/09/21 13:49:27;;;;;;;8.65;6.85;;;24.20;72.00;;;;;;5005722;28;20069;-80
2023/09/21 13:51:56;;;;;;;10.60;6.93;;;24.20;72.10;;;;;;5002405;28;20042;-79
2023/09/21 13:54:22;;;;;;;7.57;6.60;;;24.20;72.10;;;;;;5018576;28;20480;-80
2023/09/21 13:56:49;;;;;;;10.15;6.88;;;24.20;72.20;;;;;;5003752;28;20621;-79
2023/09/21 13:59:16;;;;;;;7.97;6.40;;;24.20;72.30;;;;;;4999642;28;20045;-79
2023/09/21 14:01:42;;;;;;;7.15;6.45;;;24.20;72.50;;;;;;5005847;28;20034;-81
2023/09/21 14:04:08;;;;;;;9.30;6.82;;;24.20;72.50;;;;;;5002283;28;20113;-80